sensor_id;sensor_type;location;lat;lon;timestamp;pressure;altitude;pressure_sealevel;temperature;humidity
6528;BME280;64597;42.664;23.256;2023-08-06T00:02:12;93460.72;;;21.10;69.33
6528;BME280;64597;42.664;23.256;2023-08-06T00:04:37;93487.19;;;21.12;69.60
6528;BME280;64597;42.664;23.256;2023-08-06T00:07:03;93488.00;;;21.12;69.60
6528;BME280;64597;42.664;23.256;2023-08-06T00:09:29;93484.06;;;21.10;69.53
6528;BME280;64597;42.664;23.256;2023-08-06T00:11:54;93493.09;;;21.05;69.83
6528;BME280;64597;42.664;23.256;2023-08-06T00:14:20;93497.00;;;21.08;70.06
6528;BME280;64597;42.664;23.256;2023-08-06T00:16:45;93492.44;;;21.08;70.42
6528;BME280;64597;42.664;23.256;2023-08-06T00:19:10;93462.84;;;20.96;70.71
6528;BME280;64597;42.664;23.256;2023-08-06T00:21:36;93484.72;;;21.07;70.98
6528;BME280;64597;42.664;23.256;2023-08-06T00:24:01;93495.25;;;21.12;71.13
6528;BME280;64597;42.664;23.256;2023-08-06T00:26:27;93490.22;;;21.10;71.02
6528;BME280;64597;42.664;23.256;2023-08-06T00:28:52;93493.69;;;21.11;70.78
6528;BME280;64597;42.664;23.256;2023-08-06T00:31:17;93480.75;;;21.13;70.37
6528;BME280;64597;42.664;23.256;2023-08-06T00:33:43;93476.81;;;21.10;70.54
6528;BME280;64597;42.664;23.256;2023-08-06T00:36:08;93462.16;;;21.08;70.26
6528;BME280;64597;42.664;23.256;2023-08-06T00:38:34;93456.22;;;21.02;69.96
6528;BME280;64597;42.664;23.256;2023-08-06T00:40:59;93459.19;;;21.01;69.96
6528;BME280;64597;42.664;23.256;2023-08-06T00:43:25;93475.91;;;21.06;70.31
6528;BME280;64597;42.664;23.256;2023-08-06T00:45:50;93467.06;;;21.06;69.98
6528;BME280;64597;42.664;23.256;2023-08-06T00:48:16;93463.91;;;21.04;70.69
6528;BME280;64597;42.664;23.256;2023-08-06T00:50:41;93454.16;;;20.99;70.76
6528;BME280;64597;42.664;23.256;2023-08-06T00:53:07;93458.25;;;21.05;71.02
6528;BME280;64597;42.664;23.256;2023-08-06T00:55:33;93455.88;;;21.04;70.93
6528;BME280;64597;42.664;23.256;2023-08-06T00:57:59;93454.63;;;21.01;70.67
6528;BME280;64597;42.664;23.256;2023-08-06T01:00:25;93457.00;;;21.03;70.46
6528;BME280;64597;42.664;23.256;2023-08-06T01:02:52;93451.34;;;20.96;70.37
6528;BME280;64597;42.664;23.256;2023-08-06T01:05:18;93437.72;;;20.80;70.69
6528;BME280;64597;42.664;23.256;2023-08-06T01:08:02;93428.53;;;20.90;70.65
6528;BME280;64597;42.664;23.256;2023-08-06T01:13:43;93418.00;;;20.85;70.78
6528;BME280;64597;42.664;23.256;2023-08-06T01:16:14;93424.00;;;20.82;70.55
6528;BME280;64597;42.664;23.256;2023-08-06T01:18:40;93415.84;;;20.78;70.06
6528;BME280;64597;42.664;23.256;2023-08-06T01:21:07;93425.31;;;20.76;70.14
6528;BME280;64597;42.664;23.256;2023-08-06T01:23:33;93433.00;;;20.77;70.35
6528;BME280;64597;42.664;23.256;2023-08-06T01:29:00;93411.00;;;20.72;70.88
6528;BME280;64597;42.664;23.256;2023-08-06T01:31:32;93419.94;;;20.76;70.17
6528;BME280;64597;42.664;23.256;2023-08-06T01:34:01;93399.84;;;20.61;70.11
6528;BME280;64597;42.664;23.256;2023-08-06T01:36:28;93400.16;;;20.68;70.51
6528;BME280;64597;42.664;23.256;2023-08-06T01:38:55;93399.81;;;20.70;70.69
6528;BME280;64597;42.664;23.256;2023-08-06T01:41:22;93407.34;;;20.76;70.91
6528;BME280;64597;42.664;23.256;2023-08-06T01:43:47;93405.59;;;20.80;70.89
6528;BME280;64597;42.664;23.256;2023-08-06T01:46:13;93414.41;;;20.81;70.98
6528;BME280;64597;42.664;23.256;2023-08-06T01:48:38;93409.50;;;20.83;70.92
6528;BME280;64597;42.664;23.256;2023-08-06T01:51:04;93417.22;;;20.84;70.58
6528;BME280;64597;42.664;23.256;2023-08-06T01:53:30;93424.22;;;20.77;70.50
6528;BME280;64597;42.664;23.256;2023-08-06T01:55:57;93410.66;;;20.73;70.76
6528;BME280;64597;42.664;23.256;2023-08-06T01:58:22;93407.66;;;20.75;70.97
6528;BME280;64597;42.664;23.256;2023-08-06T02:00:48;93394.59;;;20.73;70.90
6528;BME280;64597;42.664;23.256;2023-08-06T02:03:13;93389.50;;;20.80;71.11
6528;BME280;64597;42.664;23.256;2023-08-06T02:05:39;93384.47;;;20.79;71.06
6528;BME280;64597;42.664;23.256;2023-08-06T02:08:05;93398.78;;;20.83;71.25
6528;BME280;64597;42.664;23.256;2023-08-06T02:10:30;93391.59;;;20.75;71.29
6528;BME280;64597;42.664;23.256;2023-08-06T02:12:56;93382.03;;;20.65;70.79
6528;BME280;64597;42.664;23.256;2023-08-06T02:15:21;93402.03;;;20.68;70.80
6528;BME280;64597;42.664;23.256;2023-08-06T02:17:46;93405.09;;;20.58;71.48
6528;BME280;64597;42.664;23.256;2023-08-06T02:20:12;93394.78;;;20.39;71.75
6528;BME280;64597;42.664;23.256;2023-08-06T02:22:37;93421.66;;;20.51;72.05
6528;BME280;64597;42.664;23.256;2023-08-06T02:25:03;93422.31;;;20.48;72.21
6528;BME280;64597;42.664;23.256;2023-08-06T02:27:28;93413.66;;;20.42;72.59
6528;BME280;64597;42.664;23.256;2023-08-06T02:29:54;93388.81;;;20.42;72.89
6528;BME280;64597;42.664;23.256;2023-08-06T02:32:19;93386.72;;;20.47;72.91
6528;BME280;64597;42.664;23.256;2023-08-06T02:34:45;93379.38;;;20.36;72.53
6528;BME280;64597;42.664;23.256;2023-08-06T02:37:10;93413.19;;;20.40;72.70
6528;BME280;64597;42.664;23.256;2023-08-06T02:39:35;93435.41;;;20.41;72.78
6528;BME280;64597;42.664;23.256;2023-08-06T02:42:05;93434.94;;;20.39;72.92
6528;BME280;64597;42.664;23.256;2023-08-06T02:44:31;93423.78;;;20.37;72.81
6528;BME280;64597;42.664;23.256;2023-08-06T02:46:56;93425.03;;;20.39;72.94
6528;BME280;64597;42.664;23.256;2023-08-06T02:49:22;93408.97;;;20.39;73.07
6528;BME280;64597;42.664;23.256;2023-08-06T02:51:47;93387.72;;;20.34;73.18
6528;BME280;64597;42.664;23.256;2023-08-06T02:54:13;93379.97;;;20.41;73.70
6528;BME280;64597;42.664;23.256;2023-08-06T02:56:38;93367.06;;;20.43;74.19
6528;BME280;64597;42.664;23.256;2023-08-06T02:59:04;93384.22;;;20.42;74.27
6528;BME280;64597;42.664;23.256;2023-08-06T03:01:29;93373.63;;;20.25;74.20
6528;BME280;64597;42.664;23.256;2023-08-06T03:03:55;93368.00;;;20.39;73.94
6528;BME280;64597;42.664;23.256;2023-08-06T03:06:20;93346.25;;;20.40;74.18
6528;BME280;64597;42.664;23.256;2023-08-06T03:08:46;93353.06;;;20.38;74.68
6528;BME280;64597;42.664;23.256;2023-08-06T03:11:11;93388.19;;;20.36;74.52
6528;BME280;64597;42.664;23.256;2023-08-06T03:13:36;93386.03;;;20.30;74.71
6528;BME280;64597;42.664;23.256;2023-08-06T03:16:02;93359.41;;;20.33;74.94
6528;BME280;64597;42.664;23.256;2023-08-06T03:18:28;93348.22;;;20.31;74.81
6528;BME280;64597;42.664;23.256;2023-08-06T03:20:53;93344.63;;;20.27;74.75
6528;BME280;64597;42.664;23.256;2023-08-06T03:23:18;93358.13;;;20.31;74.92
6528;BME280;64597;42.664;23.256;2023-08-06T03:25:44;93370.38;;;20.40;74.50
6528;BME280;64597;42.664;23.256;2023-08-06T03:28:10;93346.72;;;20.42;74.34
6528;BME280;64597;42.664;23.256;2023-08-06T03:30:35;93361.38;;;20.45;74.30
6528;BME280;64597;42.664;23.256;2023-08-06T03:33:01;93380.56;;;20.47;74.49
6528;BME280;64597;42.664;23.256;2023-08-06T03:35:26;93391.28;;;20.47;74.52
6528;BME280;64597;42.664;23.256;2023-08-06T03:37:52;93387.50;;;20.48;74.63
6528;BME280;64597;42.664;23.256;2023-08-06T03:40:17;93385.78;;;20.43;75.12
6528;BME280;64597;42.664;23.256;2023-08-06T03:42:43;93397.75;;;20.46;75.15
6528;BME280;64597;42.664;23.256;2023-08-06T03:45:08;93395.34;;;20.53;75.17
6528;BME280;64597;42.664;23.256;2023-08-06T03:47:34;93405.25;;;20.52;75.35
6528;BME280;64597;42.664;23.256;2023-08-06T03:49:59;93412.84;;;20.50;75.27
6528;BME280;64597;42.664;23.256;2023-08-06T03:52:25;93421.19;;;20.49;75.12
6528;BME280;64597;42.664;23.256;2023-08-06T03:54:50;93415.06;;;20.48;75.22
6528;BME280;64597;42.664;23.256;2023-08-06T03:57:16;93408.94;;;20.48;75.07
6528;BME280;64597;42.664;23.256;2023-08-06T03:59:41;93422.13;;;20.53;74.97
6528;BME280;64597;42.664;23.256;2023-08-06T04:02:07;93417.69;;;20.57;74.88
6528;BME280;64597;42.664;23.256;2023-08-06T04:04:32;93416.13;;;20.56;74.49
6528;BME280;64597;42.664;23.256;2023-08-06T04:06:58;93399.19;;;20.43;74.25
6528;BME280;64597;42.664;23.256;2023-08-06T04:09:23;93397.81;;;20.37;74.50
6528;BME280;64597;42.664;23.256;2023-08-06T04:11:49;93420.38;;;20.57;74.98
6528;BME280;64597;42.664;23.256;2023-08-06T04:14:14;93433.44;;;20.59;75.00
6528;BME280;64597;42.664;23.256;2023-08-06T04:16:39;93437.06;;;20.63;75.37
6528;BME280;64597;42.664;23.256;2023-08-06T04:19:05;93416.91;;;20.57;75.40
6528;BME280;64597;42.664;23.256;2023-08-06T04:21:30;93423.34;;;20.64;75.46
6528;BME280;64597;42.664;23.256;2023-08-06T04:23:56;93416.09;;;20.65;75.71
6528;BME280;64597;42.664;23.256;2023-08-06T04:26:22;93414.97;;;20.66;75.59
6528;BME280;64597;42.664;23.256;2023-08-06T04:28:47;93401.78;;;20.61;75.02
6528;BME280;64597;42.664;23.256;2023-08-06T04:31:14;93409.16;;;20.64;74.56
6528;BME280;64597;42.664;23.256;2023-08-06T04:33:39;93417.31;;;20.67;74.68
6528;BME280;64597;42.664;23.256;2023-08-06T04:36:06;93416.56;;;20.67;74.59
6528;BME280;64597;42.664;23.256;2023-08-06T04:38:31;93408.19;;;20.68;74.77
6528;BME280;64597;42.664;23.256;2023-08-06T04:40:57;93405.97;;;20.70;74.75
6528;BME280;64597;42.664;23.256;2023-08-06T04:43:23;93390.09;;;20.57;74.94
6528;BME280;64597;42.664;23.256;2023-08-06T04:45:49;93379.16;;;20.70;74.91
6528;BME280;64597;42.664;23.256;2023-08-06T04:48:15;93365.00;;;20.70;74.77
6528;BME280;64597;42.664;23.256;2023-08-06T04:50:48;93371.09;;;20.79;74.71
6528;BME280;64597;42.664;23.256;2023-08-06T04:53:14;93335.72;;;20.65;75.06
6528;BME280;64597;42.664;23.256;2023-08-06T04:55:40;93351.94;;;20.89;74.86
6528;BME280;64597;42.664;23.256;2023-08-06T04:58:06;93346.69;;;20.92;74.84
6528;BME280;64597;42.664;23.256;2023-08-06T05:00:32;93342.31;;;20.88;74.90
6528;BME280;64597;42.664;23.256;2023-08-06T05:03:00;93346.50;;;20.97;75.23
6528;BME280;64597;42.664;23.256;2023-08-06T05:05:26;93342.38;;;21.00;74.90
6528;BME280;64597;42.664;23.256;2023-08-06T05:07:54;93350.38;;;21.08;74.66
6528;BME280;64597;42.664;23.256;2023-08-06T05:10:20;93346.13;;;21.07;73.94
6528;BME280;64597;42.664;23.256;2023-08-06T05:12:45;93357.56;;;21.16;73.94
6528;BME280;64597;42.664;23.256;2023-08-06T05:15:11;93346.94;;;21.20;73.49
6528;BME280;64597;42.664;23.256;2023-08-06T05:17:36;93351.22;;;21.21;72.05
6528;BME280;64597;42.664;23.256;2023-08-06T05:20:02;93356.94;;;21.31;71.44
6528;BME280;64597;42.664;23.256;2023-08-06T05:22:28;93357.97;;;21.39;71.45
6528;BME280;64597;42.664;23.256;2023-08-06T05:24:53;93363.59;;;21.46;72.14
6528;BME280;64597;42.664;23.256;2023-08-06T05:27:19;93348.41;;;21.50;71.82
6528;BME280;64597;42.664;23.256;2023-08-06T05:29:45;93348.44;;;21.62;71.63
6528;BME280;64597;42.664;23.256;2023-08-06T05:32:10;93349.56;;;21.73;70.61
6528;BME280;64597;42.664;23.256;2023-08-06T05:34:36;93335.19;;;21.90;69.49
6528;BME280;64597;42.664;23.256;2023-08-06T05:37:02;93351.22;;;21.98;69.45
6528;BME280;64597;42.664;23.256;2023-08-06T05:39:28;93332.88;;;22.00;68.58
6528;BME280;64597;42.664;23.256;2023-08-06T05:41:53;93339.03;;;22.13;68.98
6528;BME280;64597;42.664;23.256;2023-08-06T05:44:20;93350.56;;;22.13;68.22
6528;BME280;64597;42.664;23.256;2023-08-06T05:46:46;93352.34;;;22.22;68.36
6528;BME280;64597;42.664;23.256;2023-08-06T05:49:11;93348.78;;;22.30;68.26
6528;BME280;64597;42.664;23.256;2023-08-06T05:51:39;93348.09;;;22.33;67.23
6528;BME280;64597;42.664;23.256;2023-08-06T05:54:04;93356.81;;;22.42;67.53
6528;BME280;64597;42.664;23.256;2023-08-06T05:56:30;93358.69;;;22.53;67.35
6528;BME280;64597;42.664;23.256;2023-08-06T05:58:55;93359.31;;;22.59;67.33
6528;BME280;64597;42.664;23.256;2023-08-06T06:01:20;93368.47;;;22.70;66.17
6528;BME280;64597;42.664;23.256;2023-08-06T06:03:46;93356.38;;;22.64;65.44
6528;BME280;64597;42.664;23.256;2023-08-06T06:06:11;93370.22;;;22.78;65.49
6528;BME280;64597;42.664;23.256;2023-08-06T06:08:37;93377.50;;;22.89;65.80
6528;BME280;64597;42.664;23.256;2023-08-06T06:11:02;93377.13;;;23.03;66.20
6528;BME280;64597;42.664;23.256;2023-08-06T06:13:28;93378.34;;;23.18;65.66
6528;BME280;64597;42.664;23.256;2023-08-06T06:15:54;93380.97;;;23.30;65.32
6528;BME280;64597;42.664;23.256;2023-08-06T06:18:21;93386.88;;;23.47;65.01
6528;BME280;64597;42.664;23.256;2023-08-06T06:20:46;93383.94;;;23.52;63.14
6528;BME280;64597;42.664;23.256;2023-08-06T06:23:12;93401.31;;;23.55;62.24
6528;BME280;64597;42.664;23.256;2023-08-06T06:25:42;93397.84;;;23.54;62.86
6528;BME280;64597;42.664;23.256;2023-08-06T06:28:07;93397.41;;;23.52;62.34
6528;BME280;64597;42.664;23.256;2023-08-06T06:30:33;93407.91;;;23.57;61.17
6528;BME280;64597;42.664;23.256;2023-08-06T06:32:59;93405.72;;;23.47;60.59
6528;BME280;64597;42.664;23.256;2023-08-06T06:35:24;93385.56;;;23.41;60.79
6528;BME280;64597;42.664;23.256;2023-08-06T06:37:50;93417.22;;;23.60;61.27
6528;BME280;64597;42.664;23.256;2023-08-06T06:40:15;93430.22;;;23.58;60.95
6528;BME280;64597;42.664;23.256;2023-08-06T06:42:41;93435.59;;;23.58;62.02
6528;BME280;64597;42.664;23.256;2023-08-06T06:45:07;93431.00;;;23.58;61.85
6528;BME280;64597;42.664;23.256;2023-08-06T06:47:32;93432.13;;;23.57;61.36
6528;BME280;64597;42.664;23.256;2023-08-06T06:49:58;93436.59;;;23.65;59.78
6528;BME280;64597;42.664;23.256;2023-08-06T06:52:23;93430.88;;;23.67;59.53
6528;BME280;64597;42.664;23.256;2023-08-06T06:54:49;93437.97;;;23.87;58.64
6528;BME280;64597;42.664;23.256;2023-08-06T06:57:14;93447.53;;;24.00;57.27
6528;BME280;64597;42.664;23.256;2023-08-06T06:59:40;93447.69;;;23.92;57.00
6528;BME280;64597;42.664;23.256;2023-08-06T07:02:05;93460.28;;;23.88;57.53
6528;BME280;64597;42.664;23.256;2023-08-06T07:04:31;93458.66;;;23.99;56.87
6528;BME280;64597;42.664;23.256;2023-08-06T07:06:56;93464.72;;;24.39;54.88
6528;BME280;64597;42.664;23.256;2023-08-06T07:09:22;93451.56;;;25.15;52.88
6528;BME280;64597;42.664;23.256;2023-08-06T07:11:47;93457.94;;;25.96;51.24
6528;BME280;64597;42.664;23.256;2023-08-06T07:14:13;93454.13;;;26.61;50.10
6528;BME280;64597;42.664;23.256;2023-08-06T07:16:39;93467.47;;;27.22;47.49
6528;BME280;64597;42.664;23.256;2023-08-06T07:19:05;93463.97;;;27.74;46.35
6528;BME280;64597;42.664;23.256;2023-08-06T07:21:31;93458.59;;;27.78;43.54
6528;BME280;64597;42.664;23.256;2023-08-06T07:23:57;93463.63;;;27.79;44.86
6528;BME280;64597;42.664;23.256;2023-08-06T07:26:24;93456.38;;;28.16;44.66
6528;BME280;64597;42.664;23.256;2023-08-06T07:28:50;93473.88;;;28.59;43.33
6528;BME280;64597;42.664;23.256;2023-08-06T07:31:15;93468.69;;;28.87;42.09
6528;BME280;64597;42.664;23.256;2023-08-06T07:33:41;93462.81;;;29.25;42.15
6528;BME280;64597;42.664;23.256;2023-08-06T07:36:14;93469.56;;;29.49;40.04
6528;BME280;64597;42.664;23.256;2023-08-06T07:38:41;93461.50;;;29.63;40.07
6528;BME280;64597;42.664;23.256;2023-08-06T07:41:06;93473.13;;;29.60;38.34
6528;BME280;64597;42.664;23.256;2023-08-06T07:43:32;93467.03;;;29.77;39.83
6528;BME280;64597;42.664;23.256;2023-08-06T07:45:58;93469.47;;;29.96;39.15
6528;BME280;64597;42.664;23.256;2023-08-06T07:48:25;93461.09;;;29.61;38.83
6528;BME280;64597;42.664;23.256;2023-08-06T07:50:57;93455.44;;;29.87;38.29
6528;BME280;64597;42.664;23.256;2023-08-06T07:53:24;93461.50;;;29.67;38.84
6528;BME280;64597;42.664;23.256;2023-08-06T07:55:53;93414.50;;;29.59;38.50
6528;BME280;64597;42.664;23.256;2023-08-06T07:58:19;93450.44;;;30.03;38.94
6528;BME280;64597;42.664;23.256;2023-08-06T08:00:46;93449.81;;;30.49;36.49
6528;BME280;64597;42.664;23.256;2023-08-06T08:03:12;93458.59;;;29.96;37.18
6528;BME280;64597;42.664;23.256;2023-08-06T08:05:39;93448.66;;;30.39;37.83
6528;BME280;64597;42.664;23.256;2023-08-06T08:08:04;93447.50;;;30.58;36.30
6528;BME280;64597;42.664;23.256;2023-08-06T08:10:31;93442.41;;;30.32;37.14
6528;BME280;64597;42.664;23.256;2023-08-06T08:12:56;93459.03;;;30.09;37.42
6528;BME280;64597;42.664;23.256;2023-08-06T08:15:22;93455.03;;;29.85;37.35
6528;BME280;64597;42.664;23.256;2023-08-06T08:17:47;93447.47;;;29.54;38.25
6528;BME280;64597;42.664;23.256;2023-08-06T08:20:15;93449.91;;;29.70;38.56
6528;BME280;64597;42.664;23.256;2023-08-06T08:22:42;93453.59;;;30.13;38.12
6528;BME280;64597;42.664;23.256;2023-08-06T08:25:08;93449.44;;;30.47;36.56
6528;BME280;64597;42.664;23.256;2023-08-06T08:27:34;93433.06;;;30.33;36.73
6528;BME280;64597;42.664;23.256;2023-08-06T08:30:00;93443.97;;;30.29;35.67
6528;BME280;64597;42.664;23.256;2023-08-06T08:32:25;93444.69;;;30.23;35.45
6528;BME280;64597;42.664;23.256;2023-08-06T08:34:51;93443.56;;;30.34;34.84
6528;BME280;64597;42.664;23.256;2023-08-06T08:37:18;93450.97;;;30.34;35.40
6528;BME280;64597;42.664;23.256;2023-08-06T08:39:44;93447.75;;;30.10;34.73
6528;BME280;64597;42.664;23.256;2023-08-06T08:42:10;93438.16;;;30.45;35.41
6528;BME280;64597;42.664;23.256;2023-08-06T08:44:35;93444.81;;;30.72;34.93
6528;BME280;64597;42.664;23.256;2023-08-06T08:47:07;93421.47;;;30.67;35.51
6528;BME280;64597;42.664;23.256;2023-08-06T08:49:36;93426.94;;;31.17;35.01
6528;BME280;64597;42.664;23.256;2023-08-06T08:52:03;93422.63;;;31.37;33.62
6528;BME280;64597;42.664;23.256;2023-08-06T08:54:32;93428.09;;;31.16;33.84
6528;BME280;64597;42.664;23.256;2023-08-06T08:56:59;93383.38;;;30.78;34.12
6528;BME280;64597;42.664;23.256;2023-08-06T08:59:24;93423.41;;;31.27;33.67
6528;BME280;64597;42.664;23.256;2023-08-06T09:01:51;93418.63;;;31.84;33.56
6528;BME280;64597;42.664;23.256;2023-08-06T09:04:18;93416.22;;;32.07;32.10
6528;BME280;64597;42.664;23.256;2023-08-06T09:06:50;93401.97;;;31.46;32.31
6528;BME280;64597;42.664;23.256;2023-08-06T09:09:22;93421.50;;;31.13;32.60
6528;BME280;64597;42.664;23.256;2023-08-06T09:11:50;93413.66;;;31.54;33.13
6528;BME280;64597;42.664;23.256;2023-08-06T09:14:16;93411.97;;;31.99;32.31
6528;BME280;64597;42.664;23.256;2023-08-06T09:16:43;93408.06;;;32.00;31.58
6528;BME280;64597;42.664;23.256;2023-08-06T09:19:12;93408.50;;;31.84;31.59
6528;BME280;64597;42.664;23.256;2023-08-06T09:21:42;93384.44;;;31.61;31.56
6528;BME280;64597;42.664;23.256;2023-08-06T09:24:09;93375.75;;;31.95;31.77
6528;BME280;64597;42.664;23.256;2023-08-06T09:26:37;93396.53;;;32.40;31.30
6528;BME280;64597;42.664;23.256;2023-08-06T09:29:04;93400.59;;;32.76;30.92
6528;BME280;64597;42.664;23.256;2023-08-06T09:31:43;93395.00;;;32.97;30.38
6528;BME280;64597;42.664;23.256;2023-08-06T09:34:20;93399.97;;;33.09;29.86
6528;BME280;64597;42.664;23.256;2023-08-06T09:36:53;93402.16;;;33.25;30.28
6528;BME280;64597;42.664;23.256;2023-08-06T09:39:20;93391.22;;;33.25;29.33
6528;BME280;64597;42.664;23.256;2023-08-06T09:41:47;93381.97;;;33.15;30.08
6528;BME280;64597;42.664;23.256;2023-08-06T09:44:19;93392.84;;;33.60;30.05
6528;BME280;64597;42.664;23.256;2023-08-06T09:46:53;93387.09;;;33.84;29.73
6528;BME280;64597;42.664;23.256;2023-08-06T09:49:21;93384.03;;;33.79;29.97
6528;BME280;64597;42.664;23.256;2023-08-06T09:51:47;93394.59;;;33.40;30.41
6528;BME280;64597;42.664;23.256;2023-08-06T09:54:16;93404.31;;;33.03;28.89
6528;BME280;64597;42.664;23.256;2023-08-06T09:56:43;93399.47;;;32.70;29.59
6528;BME280;64597;42.664;23.256;2023-08-06T09:59:09;93401.50;;;32.63;30.10
6528;BME280;64597;42.664;23.256;2023-08-06T10:01:36;93400.81;;;32.48;30.34
6528;BME280;64597;42.664;23.256;2023-08-06T10:04:04;93402.47;;;32.28;30.09
6528;BME280;64597;42.664;23.256;2023-08-06T10:06:33;93401.44;;;31.90;31.18
6528;BME280;64597;42.664;23.256;2023-08-06T10:09:00;93409.72;;;31.65;30.97
6528;BME280;64597;42.664;23.256;2023-08-06T10:11:26;93393.81;;;31.32;31.53
6528;BME280;64597;42.664;23.256;2023-08-06T10:14:00;93412.13;;;31.35;31.43
6528;BME280;64597;42.664;23.256;2023-08-06T10:16:29;93407.44;;;31.32;32.14
6528;BME280;64597;42.664;23.256;2023-08-06T10:18:55;93409.41;;;31.14;32.35
6528;BME280;64597;42.664;23.256;2023-08-06T10:21:23;93416.03;;;31.06;33.82
6528;BME280;64597;42.664;23.256;2023-08-06T10:23:53;93412.16;;;31.00;32.41
6528;BME280;64597;42.664;23.256;2023-08-06T10:26:18;93404.78;;;31.01;33.12
6528;BME280;64597;42.664;23.256;2023-08-06T10:28:44;93404.78;;;31.01;33.14
6528;BME280;64597;42.664;23.256;2023-08-06T10:31:09;93416.06;;;31.13;32.89
6528;BME280;64597;42.664;23.256;2023-08-06T10:33:41;93425.41;;;30.95;31.54
6528;BME280;64597;42.664;23.256;2023-08-06T10:36:09;93425.38;;;30.84;31.64
6528;BME280;64597;42.664;23.256;2023-08-06T10:38:50;93427.31;;;30.66;31.59
6528;BME280;64597;42.664;23.256;2023-08-06T10:41:23;93430.38;;;30.40;31.32
6528;BME280;64597;42.664;23.256;2023-08-06T10:43:49;93431.81;;;30.05;32.23
6528;BME280;64597;42.664;23.256;2023-08-06T10:46:27;93428.59;;;29.79;32.25
6528;BME280;64597;42.664;23.256;2023-08-06T10:48:54;93438.22;;;29.69;33.45
6528;BME280;64597;42.664;23.256;2023-08-06T10:51:19;93447.50;;;29.58;34.02
6528;BME280;64597;42.664;23.256;2023-08-06T10:53:46;93440.50;;;29.60;34.95
6528;BME280;64597;42.664;23.256;2023-08-06T10:56:13;93435.13;;;29.64;35.27
6528;BME280;64597;42.664;23.256;2023-08-06T10:58:40;93444.41;;;29.63;34.98
6528;BME280;64597;42.664;23.256;2023-08-06T11:01:06;93444.00;;;29.57;34.51
6528;BME280;64597;42.664;23.256;2023-08-06T11:03:33;93376.56;;;29.05;35.32
6528;BME280;64597;42.664;23.256;2023-08-06T11:05:59;93458.09;;;29.73;35.75
6528;BME280;64597;42.664;23.256;2023-08-06T11:08:29;93461.66;;;29.84;35.99
6528;BME280;64597;42.664;23.256;2023-08-06T11:10:55;93459.28;;;29.83;36.13
6528;BME280;64597;42.664;23.256;2023-08-06T11:13:32;93461.50;;;29.63;36.80
6528;BME280;64597;42.664;23.256;2023-08-06T11:15:58;93477.00;;;29.56;38.31
6528;BME280;64597;42.664;23.256;2023-08-06T11:18:23;93478.75;;;29.30;41.39
6528;BME280;64597;42.664;23.256;2023-08-06T11:20:49;93480.94;;;29.11;45.61
6528;BME280;64597;42.664;23.256;2023-08-06T11:23:14;93466.22;;;28.68;45.70
6528;BME280;64597;42.664;23.256;2023-08-06T11:25:47;93479.88;;;28.42;43.88
6528;BME280;64597;42.664;23.256;2023-08-06T11:28:13;93457.03;;;28.06;44.51
6528;BME280;64597;42.664;23.256;2023-08-06T11:30:38;93478.47;;;27.89;46.49
6528;BME280;64597;42.664;23.256;2023-08-06T11:33:07;93479.44;;;27.73;47.34
6528;BME280;64597;42.664;23.256;2023-08-06T11:35:35;93474.97;;;27.58;47.88
6528;BME280;64597;42.664;23.256;2023-08-06T11:38:01;93474.53;;;27.53;48.98
6528;BME280;64597;42.664;23.256;2023-08-06T11:40:27;93479.41;;;27.44;50.07
6528;BME280;64597;42.664;23.256;2023-08-06T11:42:52;93463.44;;;27.35;49.52
6528;BME280;64597;42.664;23.256;2023-08-06T11:45:22;93462.00;;;27.41;51.55
6528;BME280;64597;42.664;23.256;2023-08-06T11:47:50;93457.03;;;27.47;52.86
6528;BME280;64597;42.664;23.256;2023-08-06T11:50:25;93455.53;;;27.49;52.32
6528;BME280;64597;42.664;23.256;2023-08-06T11:52:56;93435.78;;;27.49;51.35
6528;BME280;64597;42.664;23.256;2023-08-06T11:55:23;93444.94;;;27.70;50.19
6528;BME280;64597;42.664;23.256;2023-08-06T11:57:49;93448.19;;;27.83;49.54
6528;BME280;64597;42.664;23.256;2023-08-06T12:00:14;93448.78;;;27.96;49.05
6528;BME280;64597;42.664;23.256;2023-08-06T12:02:43;93445.78;;;28.04;47.52
6528;BME280;64597;42.664;23.256;2023-08-06T12:05:15;93442.44;;;28.18;45.96
6528;BME280;64597;42.664;23.256;2023-08-06T12:07:45;93447.47;;;28.19;44.05
6528;BME280;64597;42.664;23.256;2023-08-06T12:10:12;93431.63;;;28.21;44.05
6528;BME280;64597;42.664;23.256;2023-08-06T12:12:38;93429.97;;;28.13;44.15
6528;BME280;64597;42.664;23.256;2023-08-06T12:15:04;93429.91;;;28.03;43.30
6528;BME280;64597;42.664;23.256;2023-08-06T12:17:31;93437.47;;;27.90;43.92
6528;BME280;64597;42.664;23.256;2023-08-06T12:19:56;93429.63;;;27.82;44.54
6528;BME280;64597;42.664;23.256;2023-08-06T12:22:22;93438.16;;;27.84;44.20
6528;BME280;64597;42.664;23.256;2023-08-06T12:24:48;93441.28;;;27.86;44.95
6528;BME280;64597;42.664;23.256;2023-08-06T12:27:13;93441.69;;;27.88;45.18
6528;BME280;64597;42.664;23.256;2023-08-06T12:29:41;93439.75;;;27.88;45.16
6528;BME280;64597;42.664;23.256;2023-08-06T12:32:07;93423.97;;;27.64;44.33
6528;BME280;64597;42.664;23.256;2023-08-06T12:34:33;93439.94;;;27.72;45.09
6528;BME280;64597;42.664;23.256;2023-08-06T12:36:59;93438.22;;;27.57;44.72
6528;BME280;64597;42.664;23.256;2023-08-06T12:39:24;93446.91;;;27.70;45.36
6528;BME280;64597;42.664;23.256;2023-08-06T12:41:50;93438.78;;;27.70;44.78
6528;BME280;64597;42.664;23.256;2023-08-06T12:44:15;93439.91;;;27.69;43.11
6528;BME280;64597;42.664;23.256;2023-08-06T12:46:40;93415.44;;;27.62;43.27
6528;BME280;64597;42.664;23.256;2023-08-06T12:49:09;93431.38;;;27.67;42.52
6528;BME280;64597;42.664;23.256;2023-08-06T12:51:34;93433.66;;;27.65;41.88
6528;BME280;64597;42.664;23.256;2023-08-06T12:54:00;93432.56;;;27.69;43.52
6528;BME280;64597;42.664;23.256;2023-08-06T12:56:26;93432.59;;;27.73;43.42
6528;BME280;64597;42.664;23.256;2023-08-06T12:58:52;93430.41;;;27.82;42.34
6528;BME280;64597;42.664;23.256;2023-08-06T13:01:17;93428.09;;;27.84;42.73
6528;BME280;64597;42.664;23.256;2023-08-06T13:03:42;93428.09;;;27.84;44.43